createdAt,value
2018-11-23T00:00:29.203Z,12.13
2018-11-23T00:05:33.319Z,13.17
2018-11-23T00:10:37.016Z,13.50
2018-11-23T00:15:40.939Z,12.10
2018-11-23T00:20:44.518Z,13.27
2018-11-23T00:25:48.266Z,11.47
2018-11-23T00:30:51.814Z,14.47
2018-11-23T00:35:55.328Z,16.20
2018-11-23T00:40:58.875Z,11.97
2018-11-23T00:46:03.413Z,12.97
2018-11-23T00:51:07.388Z,12.47
2018-11-23T00:56:11.160Z,12.15
2018-11-23T01:01:15.022Z,12.47
2018-11-23T01:06:19.178Z,12.40
2018-11-23T01:11:22.779Z,13.50
2018-11-23T01:16:26.344Z,12.03
2018-11-23T01:21:29.997Z,14.47
2018-11-23T01:26:33.579Z,12.63
2018-11-23T01:31:37.358Z,11.88
2018-11-23T01:36:41.477Z,13.20
2018-11-23T01:41:45.400Z,15.10
2018-11-23T01:46:49.283Z,11.47
2018-11-23T01:51:53.252Z,11.73
2018-11-23T01:56:56.760Z,12.10
2018-11-23T02:02:00.620Z,12.17
2018-11-23T02:07:04.521Z,12.33
2018-11-23T02:12:08.899Z,12.23
2018-11-23T02:17:12.627Z,11.43
2018-11-23T02:22:16.727Z,10.93
2018-11-23T02:27:20.604Z,10.53
2018-11-23T02:32:24.350Z,11.73
2018-11-23T02:37:27.967Z,11.37
2018-11-23T02:42:31.818Z,11.60
2018-11-23T02:47:35.341Z,11.70
2018-11-23T02:52:39.828Z,12.87
2018-11-23T02:57:43.709Z,12.40
2018-11-23T03:02:47.591Z,12.63
2018-11-23T03:07:51.788Z,13.37
2018-11-23T03:12:55.510Z,12.83
2018-11-23T03:17:59.100Z,13.27
2018-11-23T03:23:04.305Z,11.57
2018-11-23T03:28:08.106Z,12.57
2018-11-23T03:33:12.713Z,12.25
2018-11-23T03:38:16.245Z,10.82
2018-11-23T03:43:19.914Z,12.53
2018-11-23T03:48:23.487Z,11.50
2018-11-23T03:53:27.017Z,13.83
2018-11-23T03:58:30.647Z,13.23
2018-11-23T04:03:34.709Z,12.00
2018-11-23T04:08:38.442Z,12.73
2018-11-23T04:13:42.030Z,11.93
2018-11-23T04:18:46.036Z,11.55
2018-11-23T04:23:49.667Z,10.90
2018-11-23T04:28:53.472Z,11.23
2018-11-23T04:33:56.993Z,13.07
2018-11-23T04:39:00.513Z,11.23
2018-11-23T04:44:05.578Z,11.47
2018-11-23T04:49:09.838Z,12.30
2018-11-23T04:54:13.737Z,11.23
2018-11-23T04:59:17.311Z,10.48
2018-11-23T05:04:20.867Z,11.50
2018-11-23T05:09:24.424Z,11.13
2018-11-23T05:14:27.939Z,12.17
2018-11-23T05:19:31.442Z,11.87
2018-11-23T05:24:35.838Z,12.20
2018-11-23T05:29:39.609Z,11.87
2018-11-23T05:34:43.523Z,11.83
2018-11-23T05:39:47.594Z,11.00
2018-11-23T05:44:51.361Z,11.67
2018-11-23T05:49:54.928Z,11.40
2018-11-23T05:54:58.441Z,11.47
2018-11-23T06:00:02.589Z,11.13
2018-11-23T06:05:07.542Z,11.33
2018-11-23T06:10:15.534Z,12.23
2018-11-23T06:15:21.310Z,11.65
2018-11-23T06:20:26.491Z,11.23
2018-11-23T06:25:34.219Z,11.03
2018-11-23T06:30:37.879Z,10.73
2018-11-23T06:35:41.426Z,11.30
2018-11-23T06:40:44.976Z,11.73
2018-11-23T06:45:48.635Z,11.50
2018-11-23T06:50:52.325Z,11.50
2018-11-23T06:55:56.777Z,10.37
2018-11-23T07:01:01.456Z,10.73
2018-11-23T07:06:05.770Z,12.00
2018-11-23T07:11:09.504Z,13.07
2018-11-23T07:16:13.154Z,12.63
2018-11-23T07:21:21.390Z,12.40
2018-11-23T07:26:20.215Z,10.23
2018-11-23T07:31:23.912Z,11.07
2018-11-23T07:36:27.617Z,11.80
2018-11-23T07:41:42.542Z,13.17
2018-11-23T07:46:46.899Z,11.18
2018-11-23T07:51:50.899Z,13.30
2018-11-23T07:56:54.382Z,12.87
2018-11-23T08:01:57.914Z,14.90
2018-11-23T08:07:01.837Z,14.93
2018-11-23T08:12:05.970Z,14.43
2018-11-23T08:17:10.280Z,15.43
2018-11-23T08:22:14.805Z,14.57
2018-11-23T08:27:18.620Z,14.73
2018-11-23T08:32:22.159Z,16.37
2018-11-23T08:37:25.668Z,14.90
2018-11-23T08:42:29.185Z,17.10
2018-11-23T08:47:32.733Z,16.00
2018-11-23T08:52:36.578Z,18.37
2018-11-23T08:57:40.639Z,14.73
2018-11-23T09:02:45.638Z,14.73
2018-11-23T09:07:50.793Z,15.43
2018-11-23T09:12:57.465Z,16.27
2018-11-23T09:18:01.497Z,16.83
2018-11-23T09:23:05.191Z,17.43
2018-11-23T09:28:08.715Z,16.57
2018-11-23T09:33:12.287Z,16.97
2018-11-23T09:38:15.913Z,17.50
2018-11-23T09:43:19.448Z,19.50
2018-11-23T09:48:23.271Z,18.33
2018-11-23T09:53:27.095Z,18.60
2018-11-23T09:58:31.019Z,17.37
2018-11-23T10:03:34.713Z,16.37
2018-11-23T10:08:38.447Z,17.67
2018-11-23T10:13:42.427Z,20.95
2018-11-23T10:18:46.011Z,20.40
2018-11-23T10:23:49.584Z,18.50
2018-11-23T10:28:53.198Z,18.80
2018-11-23T10:33:56.695Z,17.77
2018-11-23T10:39:00.232Z,18.70
2018-11-23T10:44:04.141Z,18.03
2018-11-23T10:49:09.266Z,19.60
2018-11-23T10:54:13.112Z,18.33
2018-11-23T10:59:16.656Z,17.17
2018-11-23T11:04:25.436Z,17.77
2018-11-23T11:09:29.069Z,17.80
2018-11-23T11:14:32.733Z,18.60
2018-11-23T11:19:36.516Z,16.00
2018-11-23T11:24:40.004Z,17.30
2018-11-23T11:29:43.506Z,13.80
2018-11-23T11:34:47.350Z,12.53
2018-11-23T11:39:51.053Z,11.17
2018-11-23T11:44:54.773Z,12.40
2018-11-23T11:49:59.205Z,11.57
2018-11-23T11:55:02.734Z,12.33
2018-11-23T12:00:09.104Z,10.47
2018-11-23T12:05:13.334Z,12.13
2018-11-23T12:10:20.196Z,13.73
2018-11-23T12:15:24.328Z,14.43
2018-11-23T12:20:28.175Z,13.63
2018-11-23T12:25:32.095Z,12.10
2018-11-23T12:30:37.117Z,11.07
2018-11-23T12:35:40.825Z,10.73
2018-11-23T12:40:44.600Z,10.90
2018-11-23T12:45:48.256Z,10.93
2018-11-23T12:50:52.842Z,10.77
2018-11-23T12:55:58.134Z,12.07
2018-11-23T13:01:01.983Z,11.97
2018-11-23T13:06:05.989Z,12.60
2018-11-23T13:11:10.765Z,12.37
2018-11-23T13:16:14.995Z,12.83
2018-11-23T13:21:18.856Z,12.95
2018-11-23T13:26:23.230Z,14.00
2018-11-23T13:31:27.015Z,13.47
2018-11-23T13:36:33.657Z,13.03
2018-11-23T13:41:38.669Z,12.93
2018-11-23T13:46:43.835Z,12.27
2018-11-23T13:51:47.710Z,13.27
2018-11-23T13:56:51.820Z,13.73
2018-11-23T14:01:56.073Z,12.90
2018-11-23T14:07:00.020Z,13.37
2018-11-23T14:12:03.676Z,13.67
2018-11-23T14:17:07.564Z,12.20
2018-11-23T14:22:11.269Z,14.17
2018-11-23T14:27:17.061Z,13.17
2018-11-23T14:32:20.915Z,14.50
2018-11-23T14:37:25.272Z,12.65
2018-11-23T14:42:28.805Z,13.93
2018-11-23T14:47:33.137Z,13.00
2018-11-23T14:52:36.246Z,11.07
2018-11-23T14:57:41.257Z,12.87
2018-11-23T15:02:49.623Z,11.35
2018-11-23T15:07:55.584Z,11.27
2018-11-23T15:13:00.551Z,12.73
2018-11-23T15:18:04.557Z,12.30
2018-11-23T15:23:12.921Z,10.70
2018-11-23T15:28:17.267Z,10.40
2018-11-23T15:33:20.855Z,9.40
2018-11-23T15:38:25.594Z,8.20
2018-11-23T15:43:29.707Z,8.00
2018-11-23T15:48:33.325Z,8.17
2018-11-23T15:53:37.038Z,6.93
2018-11-23T15:58:40.760Z,7.60
2018-11-23T16:03:44.363Z,8.73
2018-11-23T16:08:48.504Z,9.30
2018-11-23T16:13:52.203Z,8.03
2018-11-23T16:18:57.074Z,6.75
2018-11-23T16:24:00.845Z,6.65
2018-11-23T16:29:04.728Z,8.93
2018-11-23T16:34:08.389Z,9.23
2018-11-23T16:39:13.396Z,8.80
2018-11-23T16:44:17.740Z,8.13
2018-11-23T16:49:22.463Z,10.40
2018-11-23T16:54:26.156Z,9.33
2018-11-23T16:59:30.045Z,8.45
2018-11-23T17:04:33.693Z,10.48
2018-11-23T17:09:38.135Z,8.97
2018-11-23T17:14:42.125Z,22.97
2018-11-23T17:19:46.511Z,25.93
2018-11-23T17:24:50.440Z,18.53
2018-11-23T17:29:54.038Z,14.60
2018-11-23T17:34:57.702Z,13.53
2018-11-23T17:40:01.972Z,15.20
2018-11-23T17:45:09.968Z,10.53
2018-11-23T17:50:15.945Z,10.97
2018-11-23T17:55:19.762Z,8.40
2018-11-23T18:00:27.657Z,9.63
2018-11-23T18:05:32.624Z,9.50
2018-11-23T18:10:36.197Z,7.50
2018-11-23T18:15:39.812Z,8.63
2018-11-23T18:20:43.430Z,8.57
2018-11-23T18:25:47.029Z,7.93
2018-11-23T18:30:50.632Z,7.27
2018-11-23T18:35:54.408Z,7.27
2018-11-23T18:40:58.114Z,8.10
2018-11-23T18:46:01.855Z,8.08
2018-11-23T18:51:05.521Z,7.70
2018-11-23T18:56:09.390Z,7.77
2018-11-23T19:01:13.497Z,7.43
2018-11-23T19:06:17.207Z,7.33
2018-11-23T19:11:21.124Z,8.13
2018-11-23T19:16:24.733Z,7.40
2018-11-23T19:21:28.533Z,7.25
2018-11-23T19:26:32.287Z,7.10
2018-11-23T19:31:36.029Z,8.30
2018-11-23T19:36:40.012Z,8.75
2018-11-23T19:41:44.257Z,7.90
2018-11-23T19:46:47.811Z,8.43
2018-11-23T19:51:52.121Z,7.13
2018-11-23T19:56:55.868Z,7.30
2018-11-23T20:01:59.659Z,7.10
2018-11-23T20:07:03.449Z,7.40
2018-11-23T20:12:07.519Z,8.00
2018-11-23T20:17:11.485Z,8.27
2018-11-23T20:22:15.218Z,7.47
2018-11-23T20:27:18.882Z,7.53
2018-11-23T20:39:57.249Z,7.57
2018-11-23T20:45:00.832Z,7.97
2018-11-23T20:50:05.708Z,6.53
2018-11-23T20:55:13.011Z,7.30
2018-11-23T21:00:20.891Z,9.53
2018-11-23T21:05:24.905Z,10.13
2018-11-23T21:10:28.425Z,10.37
2018-11-23T21:15:32.351Z,8.18
2018-11-23T21:20:36.882Z,10.63
2018-11-23T21:25:40.576Z,12.98
2018-11-23T21:30:44.814Z,14.13
2018-11-23T21:35:49.218Z,11.10
2018-11-23T21:40:52.796Z,8.97
2018-11-23T21:45:57.280Z,9.90
2018-11-23T21:51:01.635Z,10.80
2018-11-23T21:56:09.494Z,12.40
2018-11-23T22:01:10.545Z,15.43
2018-11-23T22:06:14.110Z,17.32
2018-11-23T22:11:17.870Z,15.47
2018-11-23T22:16:21.986Z,15.67
2018-11-23T22:21:25.748Z,12.47
2018-11-23T22:26:30.248Z,13.87
2018-11-23T22:31:34.309Z,10.32
2018-11-23T22:36:38.303Z,12.60
2018-11-23T22:41:42.215Z,9.50
2018-11-23T22:46:45.915Z,11.97
2018-11-23T22:51:49.730Z,11.47
2018-11-23T22:56:53.229Z,10.73
2018-11-23T23:01:57.479Z,13.07
2018-11-23T23:07:03.217Z,15.30
2018-11-23T23:12:07.822Z,13.60
2018-11-23T23:17:11.288Z,8.63
2018-11-23T23:22:14.790Z,9.00
2018-11-23T23:27:18.277Z,7.83
2018-11-23T23:32:21.764Z,7.17
2018-11-23T23:37:26.548Z,7.13
2018-11-23T23:42:30.070Z,7.60
2018-11-23T23:47:33.855Z,7.77
2018-11-23T23:52:37.862Z,7.83
2018-11-23T23:57:42.473Z,8.90
